sensor_id;sensor_type;location;lat;lon;timestamp;temperature;humidity
73829;SHT30;62176;48.450;-4.466;2022-09-02T00:01:25;19.48;84.09
73829;SHT30;62176;48.450;-4.466;2022-09-02T00:03:58;19.51;84.00
73829;SHT30;62176;48.450;-4.466;2022-09-02T00:06:24;19.51;83.96
73829;SHT30;62176;48.450;-4.466;2022-09-02T00:08:50;19.54;84.03
73829;SHT30;62176;48.450;-4.466;2022-09-02T00:11:19;19.54;84.51
73829;SHT30;62176;48.450;-4.466;2022-09-02T00:13:46;19.51;84.01
73829;SHT30;62176;48.450;-4.466;2022-09-02T00:16:12;19.52;84.36
73829;SHT30;62176;48.450;-4.466;2022-09-02T00:18:38;19.51;84.31
73829;SHT30;62176;48.450;-4.466;2022-09-02T00:21:03;19.54;83.99
73829;SHT30;62176;48.450;-4.466;2022-09-02T00:23:29;19.55;83.94
73829;SHT30;62176;48.450;-4.466;2022-09-02T00:25:54;19.57;83.92
73829;SHT30;62176;48.450;-4.466;2022-09-02T00:28:20;19.54;83.88
73829;SHT30;62176;48.450;-4.466;2022-09-02T00:30:45;19.57;83.79
73829;SHT30;62176;48.450;-4.466;2022-09-02T00:33:11;19.55;83.59
73829;SHT30;62176;48.450;-4.466;2022-09-02T00:35:37;19.55;83.91
73829;SHT30;62176;48.450;-4.466;2022-09-02T00:38:03;19.51;83.71
73829;SHT30;62176;48.450;-4.466;2022-09-02T00:40:30;19.49;83.75
73829;SHT30;62176;48.450;-4.466;2022-09-02T00:42:56;19.45;83.76
73829;SHT30;62176;48.450;-4.466;2022-09-02T00:45:21;19.45;83.88
73829;SHT30;62176;48.450;-4.466;2022-09-02T00:47:47;19.45;83.89
73829;SHT30;62176;48.450;-4.466;2022-09-02T00:50:20;19.47;83.67
73829;SHT30;62176;48.450;-4.466;2022-09-02T00:52:50;19.42;83.78
73829;SHT30;62176;48.450;-4.466;2022-09-02T00:55:23;19.41;83.75
73829;SHT30;62176;48.450;-4.466;2022-09-02T00:57:53;19.41;83.77
73829;SHT30;62176;48.450;-4.466;2022-09-02T01:00:26;19.39;83.68
73829;SHT30;62176;48.450;-4.466;2022-09-02T01:02:58;19.44;83.73
73829;SHT30;62176;48.450;-4.466;2022-09-02T01:05:28;19.38;83.49
73829;SHT30;62176;48.450;-4.466;2022-09-02T01:07:55;19.41;83.50
73829;SHT30;62176;48.450;-4.466;2022-09-02T01:10:27;19.39;84.06
73829;SHT30;62176;48.450;-4.466;2022-09-02T01:13:14;19.35;84.01
73829;SHT30;62176;48.450;-4.466;2022-09-02T01:15:45;19.34;83.65
73829;SHT30;62176;48.450;-4.466;2022-09-02T01:18:17;19.36;83.59
73829;SHT30;62176;48.450;-4.466;2022-09-02T01:20:44;19.32;83.31
73829;SHT30;62176;48.450;-4.466;2022-09-02T01:23:10;19.34;83.20
73829;SHT30;62176;48.450;-4.466;2022-09-02T01:25:36;19.31;83.16
73829;SHT30;62176;48.450;-4.466;2022-09-02T01:28:11;19.29;83.97
73829;SHT30;62176;48.450;-4.466;2022-09-02T01:30:39;19.29;83.49
73829;SHT30;62176;48.450;-4.466;2022-09-02T01:33:06;19.29;83.49
73829;SHT30;62176;48.450;-4.466;2022-09-02T01:35:32;19.24;83.97
73829;SHT30;62176;48.450;-4.466;2022-09-02T01:37:58;19.24;83.88
73829;SHT30;62176;48.450;-4.466;2022-09-02T01:40:25;19.19;83.98
73829;SHT30;62176;48.450;-4.466;2022-09-02T01:42:54;19.17;84.45
73829;SHT30;62176;48.450;-4.466;2022-09-02T01:45:20;19.14;84.69
73829;SHT30;62176;48.450;-4.466;2022-09-02T01:47:46;19.14;84.48
73829;SHT30;62176;48.450;-4.466;2022-09-02T01:50:11;19.17;84.36
73829;SHT30;62176;48.450;-4.466;2022-09-02T01:52:37;19.12;84.19
73829;SHT30;62176;48.450;-4.466;2022-09-02T01:55:04;19.11;84.09
73829;SHT30;62176;48.450;-4.466;2022-09-02T01:57:30;19.10;84.26
73829;SHT30;62176;48.450;-4.466;2022-09-02T01:59:55;19.01;84.42
73829;SHT30;62176;48.450;-4.466;2022-09-02T02:02:21;18.98;84.48
73829;SHT30;62176;48.450;-4.466;2022-09-02T02:04:47;18.97;84.50
73829;SHT30;62176;48.450;-4.466;2022-09-02T02:07:16;18.94;84.43
73829;SHT30;62176;48.450;-4.466;2022-09-02T02:09:42;18.93;84.34
73829;SHT30;62176;48.450;-4.466;2022-09-02T02:12:08;18.90;84.48
73829;SHT30;62176;48.450;-4.466;2022-09-02T02:14:34;18.87;84.59
73829;SHT30;62176;48.450;-4.466;2022-09-02T02:17:00;18.83;84.96
73829;SHT30;62176;48.450;-4.466;2022-09-02T02:19:26;18.84;85.08
73829;SHT30;62176;48.450;-4.466;2022-09-02T02:21:51;18.78;84.50
73829;SHT30;62176;48.450;-4.466;2022-09-02T02:24:17;18.77;84.51
73829;SHT30;62176;48.450;-4.466;2022-09-02T02:26:43;18.73;84.63
73829;SHT30;62176;48.450;-4.466;2022-09-02T02:29:09;18.67;84.69
73829;SHT30;62176;48.450;-4.466;2022-09-02T02:31:34;18.59;84.75
73829;SHT30;62176;48.450;-4.466;2022-09-02T02:34:00;18.53;84.98
73829;SHT30;62176;48.450;-4.466;2022-09-02T02:36:26;18.56;85.19
73829;SHT30;62176;48.450;-4.466;2022-09-02T02:38:52;18.52;85.44
73829;SHT30;62176;48.450;-4.466;2022-09-02T02:41:17;18.50;85.12
73829;SHT30;62176;48.450;-4.466;2022-09-02T02:43:43;18.50;85.30
73829;SHT30;62176;48.450;-4.466;2022-09-02T02:46:08;18.49;84.91
73829;SHT30;62176;48.450;-4.466;2022-09-02T02:48:34;18.50;84.95
73829;SHT30;62176;48.450;-4.466;2022-09-02T02:51:01;18.43;85.09
73829;SHT30;62176;48.450;-4.466;2022-09-02T02:53:26;18.40;85.00
73829;SHT30;62176;48.450;-4.466;2022-09-02T02:55:54;18.36;85.49
73829;SHT30;62176;48.450;-4.466;2022-09-02T02:58:20;18.28;85.71
73829;SHT30;62176;48.450;-4.466;2022-09-02T03:00:46;18.28;85.62
73829;SHT30;62176;48.450;-4.466;2022-09-02T03:03:12;18.22;85.90
73829;SHT30;62176;48.450;-4.466;2022-09-02T03:05:38;18.25;86.22
73829;SHT30;62176;48.450;-4.466;2022-09-02T03:08:06;18.25;86.01
73829;SHT30;62176;48.450;-4.466;2022-09-02T03:10:32;18.28;85.86
73829;SHT30;62176;48.450;-4.466;2022-09-02T03:13:01;18.30;85.77
73829;SHT30;62176;48.450;-4.466;2022-09-02T03:15:27;18.29;85.79
73829;SHT30;62176;48.450;-4.466;2022-09-02T03:17:54;18.33;85.56
73829;SHT30;62176;48.450;-4.466;2022-09-02T03:20:20;18.36;85.35
73829;SHT30;62176;48.450;-4.466;2022-09-02T03:22:47;18.34;84.86
73829;SHT30;62176;48.450;-4.466;2022-09-02T03:25:15;18.34;84.94
73829;SHT30;62176;48.450;-4.466;2022-09-02T03:27:41;18.36;84.90
73829;SHT30;62176;48.450;-4.466;2022-09-02T03:30:15;18.37;84.86
73829;SHT30;62176;48.450;-4.466;2022-09-02T03:32:41;18.37;84.65
73829;SHT30;62176;48.450;-4.466;2022-09-02T03:35:10;18.34;84.92
73829;SHT30;62176;48.450;-4.466;2022-09-02T03:37:37;18.33;85.00
73829;SHT30;62176;48.450;-4.466;2022-09-02T03:40:09;18.34;84.95
73829;SHT30;62176;48.450;-4.466;2022-09-02T03:42:35;18.39;84.88
73829;SHT30;62176;48.450;-4.466;2022-09-02T03:45:01;18.37;84.36
73829;SHT30;62176;48.450;-4.466;2022-09-02T03:47:26;18.39;84.40
73829;SHT30;62176;48.450;-4.466;2022-09-02T03:49:54;18.36;84.78
73829;SHT30;62176;48.450;-4.466;2022-09-02T03:52:19;18.37;84.41
73829;SHT30;62176;48.450;-4.466;2022-09-02T03:54:45;18.36;84.32
73829;SHT30;62176;48.450;-4.466;2022-09-02T03:57:10;18.34;84.38
73829;SHT30;62176;48.450;-4.466;2022-09-02T03:59:36;18.34;83.96
73829;SHT30;62176;48.450;-4.466;2022-09-02T04:02:01;18.32;84.16
73829;SHT30;62176;48.450;-4.466;2022-09-02T04:04:27;18.29;84.31
73829;SHT30;62176;48.450;-4.466;2022-09-02T04:06:53;18.29;84.59
73829;SHT30;62176;48.450;-4.466;2022-09-02T04:09:18;18.25;84.59
73829;SHT30;62176;48.450;-4.466;2022-09-02T04:11:44;18.23;84.58
73829;SHT30;62176;48.450;-4.466;2022-09-02T04:14:10;18.19;85.29
73829;SHT30;62176;48.450;-4.466;2022-09-02T04:16:36;18.16;84.93
73829;SHT30;62176;48.450;-4.466;2022-09-02T04:19:02;18.16;85.15
73829;SHT30;62176;48.450;-4.466;2022-09-02T04:21:31;18.16;84.81
73829;SHT30;62176;48.450;-4.466;2022-09-02T04:23:57;18.14;84.57
73829;SHT30;62176;48.450;-4.466;2022-09-02T04:26:23;18.13;84.60
73829;SHT30;62176;48.450;-4.466;2022-09-02T04:28:49;18.09;84.23
73829;SHT30;62176;48.450;-4.466;2022-09-02T04:31:17;18.06;84.64
73829;SHT30;62176;48.450;-4.466;2022-09-02T04:33:44;18.03;84.39
73829;SHT30;62176;48.450;-4.466;2022-09-02T04:36:12;17.96;83.94
73829;SHT30;62176;48.450;-4.466;2022-09-02T04:38:38;17.92;84.68
73829;SHT30;62176;48.450;-4.466;2022-09-02T04:41:08;17.86;85.03
73829;SHT30;62176;48.450;-4.466;2022-09-02T04:43:35;17.82;84.77
73829;SHT30;62176;48.450;-4.466;2022-09-02T04:46:04;17.75;85.37
73829;SHT30;62176;48.450;-4.466;2022-09-02T04:48:30;17.72;85.44
73829;SHT30;62176;48.450;-4.466;2022-09-02T04:50:56;17.65;85.26
73829;SHT30;62176;48.450;-4.466;2022-09-02T04:53:22;17.64;85.36
73829;SHT30;62176;48.450;-4.466;2022-09-02T04:55:48;17.58;85.45
73829;SHT30;62176;48.450;-4.466;2022-09-02T04:58:13;17.57;85.75
73829;SHT30;62176;48.450;-4.466;2022-09-02T05:00:40;17.55;85.52
73829;SHT30;62176;48.450;-4.466;2022-09-02T05:03:06;17.52;85.52
73829;SHT30;62176;48.450;-4.466;2022-09-02T05:05:33;17.47;85.38
73829;SHT30;62176;48.450;-4.466;2022-09-02T05:07:58;17.45;85.06
73829;SHT30;62176;48.450;-4.466;2022-09-02T05:10:24;17.41;85.37
73829;SHT30;62176;48.450;-4.466;2022-09-02T05:12:49;17.39;85.02
73829;SHT30;62176;48.450;-4.466;2022-09-02T05:15:16;17.39;85.25
73829;SHT30;62176;48.450;-4.466;2022-09-02T05:17:42;17.38;85.11
73829;SHT30;62176;48.450;-4.466;2022-09-02T05:20:08;17.37;85.17
73829;SHT30;62176;48.450;-4.466;2022-09-02T05:22:35;17.34;85.12
73829;SHT30;62176;48.450;-4.466;2022-09-02T05:25:01;17.32;84.90
73829;SHT30;62176;48.450;-4.466;2022-09-02T05:27:27;17.28;84.86
73829;SHT30;62176;48.450;-4.466;2022-09-02T05:29:56;17.28;85.03
73829;SHT30;62176;48.450;-4.466;2022-09-02T05:32:24;17.26;85.23
73829;SHT30;62176;48.450;-4.466;2022-09-02T05:34:50;17.26;85.22
73829;SHT30;62176;48.450;-4.466;2022-09-02T05:37:15;17.23;84.72
73829;SHT30;62176;48.450;-4.466;2022-09-02T05:39:41;17.18;85.17
73829;SHT30;62176;48.450;-4.466;2022-09-02T05:42:07;17.16;84.88
73829;SHT30;62176;48.450;-4.466;2022-09-02T05:44:32;17.17;84.96
73829;SHT30;62176;48.450;-4.466;2022-09-02T05:46:58;17.16;85.08
73829;SHT30;62176;48.450;-4.466;2022-09-02T05:49:23;17.14;85.04
73829;SHT30;62176;48.450;-4.466;2022-09-02T05:51:52;17.13;85.05
73829;SHT30;62176;48.450;-4.466;2022-09-02T05:54:23;17.14;85.25
73829;SHT30;62176;48.450;-4.466;2022-09-02T05:56:51;17.11;85.21
73829;SHT30;62176;48.450;-4.466;2022-09-02T05:59:18;17.14;85.02
73829;SHT30;62176;48.450;-4.466;2022-09-02T06:01:46;17.16;85.04
73829;SHT30;62176;48.450;-4.466;2022-09-02T06:04:12;17.17;85.42
73829;SHT30;62176;48.450;-4.466;2022-09-02T06:06:38;17.17;85.32
73829;SHT30;62176;48.450;-4.466;2022-09-02T06:09:05;17.23;85.10
73829;SHT30;62176;48.450;-4.466;2022-09-02T06:11:33;17.21;84.96
73829;SHT30;62176;48.450;-4.466;2022-09-02T06:13:58;17.21;85.58
73829;SHT30;62176;48.450;-4.466;2022-09-02T06:16:24;17.20;85.37
73829;SHT30;62176;48.450;-4.466;2022-09-02T06:18:50;17.26;85.96
73829;SHT30;62176;48.450;-4.466;2022-09-02T06:21:17;17.23;85.72
73829;SHT30;62176;48.450;-4.466;2022-09-02T06:23:45;17.27;85.08
73829;SHT30;62176;48.450;-4.466;2022-09-02T06:26:16;17.28;85.45
73829;SHT30;62176;48.450;-4.466;2022-09-02T06:28:42;17.31;85.45
73829;SHT30;62176;48.450;-4.466;2022-09-02T06:31:10;17.38;85.63
73829;SHT30;62176;48.450;-4.466;2022-09-02T06:33:36;17.39;85.80
73829;SHT30;62176;48.450;-4.466;2022-09-02T06:36:06;17.41;85.03
73829;SHT30;62176;48.450;-4.466;2022-09-02T06:38:36;17.42;85.00
73829;SHT30;62176;48.450;-4.466;2022-09-02T06:41:02;17.45;85.08
73829;SHT30;62176;48.450;-4.466;2022-09-02T06:43:27;17.47;85.02
73829;SHT30;62176;48.450;-4.466;2022-09-02T06:45:53;17.51;85.22
73829;SHT30;62176;48.450;-4.466;2022-09-02T06:48:19;17.54;85.64
73829;SHT30;62176;48.450;-4.466;2022-09-02T06:50:45;17.58;85.47
73829;SHT30;62176;48.450;-4.466;2022-09-02T06:53:11;17.61;85.22
73829;SHT30;62176;48.450;-4.466;2022-09-02T06:55:40;17.65;85.18
73829;SHT30;62176;48.450;-4.466;2022-09-02T06:58:06;17.69;84.91
73829;SHT30;62176;48.450;-4.466;2022-09-02T07:00:31;17.71;84.91
73829;SHT30;62176;48.450;-4.466;2022-09-02T07:02:59;17.75;85.09
73829;SHT30;62176;48.450;-4.466;2022-09-02T07:05:43;17.81;85.39
73829;SHT30;62176;48.450;-4.466;2022-09-02T07:08:09;17.85;85.07
73829;SHT30;62176;48.450;-4.466;2022-09-02T07:10:39;17.92;85.32
73829;SHT30;62176;48.450;-4.466;2022-09-02T07:13:05;17.98;85.23
73829;SHT30;62176;48.450;-4.466;2022-09-02T07:15:31;18.02;85.02
73829;SHT30;62176;48.450;-4.466;2022-09-02T07:17:57;18.02;85.61
73829;SHT30;62176;48.450;-4.466;2022-09-02T07:20:22;18.09;85.38
73829;SHT30;62176;48.450;-4.466;2022-09-02T07:22:48;18.12;85.17
73829;SHT30;62176;48.450;-4.466;2022-09-02T07:25:14;18.22;85.32
73829;SHT30;62176;48.450;-4.466;2022-09-02T07:27:40;18.25;84.73
73829;SHT30;62176;48.450;-4.466;2022-09-02T07:30:06;18.28;84.82
73829;SHT30;62176;48.450;-4.466;2022-09-02T07:32:32;18.32;85.67
73829;SHT30;62176;48.450;-4.466;2022-09-02T07:34:58;18.37;85.44
73829;SHT30;62176;48.450;-4.466;2022-09-02T07:37:23;18.43;85.60
73829;SHT30;62176;48.450;-4.466;2022-09-02T07:39:49;18.49;85.76
73829;SHT30;62176;48.450;-4.466;2022-09-02T07:42:15;18.56;85.36
73829;SHT30;62176;48.450;-4.466;2022-09-02T07:44:41;18.59;85.71
73829;SHT30;62176;48.450;-4.466;2022-09-02T07:47:06;18.63;85.55
73829;SHT30;62176;48.450;-4.466;2022-09-02T07:49:32;18.68;85.06
73829;SHT30;62176;48.450;-4.466;2022-09-02T07:51:58;18.71;84.93
73829;SHT30;62176;48.450;-4.466;2022-09-02T07:54:24;18.76;85.60
73829;SHT30;62176;48.450;-4.466;2022-09-02T07:56:51;18.80;84.85
73829;SHT30;62176;48.450;-4.466;2022-09-02T07:59:18;18.86;85.51
73829;SHT30;62176;48.450;-4.466;2022-09-02T08:01:45;18.91;84.57
73829;SHT30;62176;48.450;-4.466;2022-09-02T08:04:12;18.97;85.13
73829;SHT30;62176;48.450;-4.466;2022-09-02T08:06:38;19.01;85.37
73829;SHT30;62176;48.450;-4.466;2022-09-02T08:09:05;19.04;85.42
73829;SHT30;62176;48.450;-4.466;2022-09-02T08:11:36;19.12;85.39
73829;SHT30;62176;48.450;-4.466;2022-09-02T08:14:05;19.19;84.89
73829;SHT30;62176;48.450;-4.466;2022-09-02T08:16:30;19.25;85.49
73829;SHT30;62176;48.450;-4.466;2022-09-02T08:18:56;19.29;84.81
73829;SHT30;62176;48.450;-4.466;2022-09-02T08:21:22;19.38;85.02
73829;SHT30;62176;48.450;-4.466;2022-09-02T08:23:49;19.45;84.94
73829;SHT30;62176;48.450;-4.466;2022-09-02T08:26:15;19.48;85.02
73829;SHT30;62176;48.450;-4.466;2022-09-02T08:28:42;19.55;84.52
73829;SHT30;62176;48.450;-4.466;2022-09-02T08:31:07;19.57;84.93
73829;SHT30;62176;48.450;-4.466;2022-09-02T08:33:33;19.63;84.94
73829;SHT30;62176;48.450;-4.466;2022-09-02T08:36:04;19.66;84.13
73829;SHT30;62176;48.450;-4.466;2022-09-02T08:38:30;19.68;83.27
73829;SHT30;62176;48.450;-4.466;2022-09-02T08:40:55;19.72;83.65
73829;SHT30;62176;48.450;-4.466;2022-09-02T08:43:34;19.72;82.65
73829;SHT30;62176;48.450;-4.466;2022-09-02T08:46:05;19.75;82.09
73829;SHT30;62176;48.450;-4.466;2022-09-02T08:51:06;19.81;83.62
73829;SHT30;62176;48.450;-4.466;2022-09-02T08:53:45;19.83;82.85
73829;SHT30;62176;48.450;-4.466;2022-09-02T08:56:15;19.89;83.25
73829;SHT30;62176;48.450;-4.466;2022-09-02T08:58:44;19.92;83.19
73829;SHT30;62176;48.450;-4.466;2022-09-02T09:04:11;20.03;83.45
73829;SHT30;62176;48.450;-4.466;2022-09-02T09:09:44;20.09;82.46
73829;SHT30;62176;48.450;-4.466;2022-09-02T09:12:22;20.13;83.18
73829;SHT30;62176;48.450;-4.466;2022-09-02T09:17:51;20.27;83.12
73829;SHT30;62176;48.450;-4.466;2022-09-02T09:20:25;20.32;81.77
73829;SHT30;62176;48.450;-4.466;2022-09-02T09:22:55;20.29;81.26
73829;SHT30;62176;48.450;-4.466;2022-09-02T09:25:21;20.32;81.44
73829;SHT30;62176;48.450;-4.466;2022-09-02T09:27:52;20.32;81.25
73829;SHT30;62176;48.450;-4.466;2022-09-02T09:30:17;20.29;81.45
73829;SHT30;62176;48.450;-4.466;2022-09-02T09:32:46;20.37;82.15
73829;SHT30;62176;48.450;-4.466;2022-09-02T09:35:16;20.39;81.49
73829;SHT30;62176;48.450;-4.466;2022-09-02T09:37:46;20.44;82.03
73829;SHT30;62176;48.450;-4.466;2022-09-02T09:42:45;20.44;80.59
73829;SHT30;62176;48.450;-4.466;2022-09-02T09:48:12;20.43;80.27
73829;SHT30;62176;48.450;-4.466;2022-09-02T09:50:39;20.56;81.09
73829;SHT30;62176;48.450;-4.466;2022-09-02T09:53:17;20.61;81.54
73829;SHT30;62176;48.450;-4.466;2022-09-02T09:55:59;20.68;80.55
73829;SHT30;62176;48.450;-4.466;2022-09-02T10:01:22;20.70;77.87
73829;SHT30;62176;48.450;-4.466;2022-09-02T10:06:20;20.68;78.01
73829;SHT30;62176;48.450;-4.466;2022-09-02T10:11:22;20.70;79.00
73829;SHT30;62176;48.450;-4.466;2022-09-02T10:13:47;20.70;78.78
73829;SHT30;62176;48.450;-4.466;2022-09-02T10:19:38;20.68;79.29
73829;SHT30;62176;48.450;-4.466;2022-09-02T10:22:43;20.68;79.29
73829;SHT30;62176;48.450;-4.466;2022-09-02T10:38:26;20.81;77.71
73829;SHT30;62176;48.450;-4.466;2022-09-02T10:41:25;20.80;78.23
73829;SHT30;62176;48.450;-4.466;2022-09-02T10:47:00;20.85;78.90
73829;SHT30;62176;48.450;-4.466;2022-09-02T10:55:33;20.83;77.99
73829;SHT30;62176;48.450;-4.466;2022-09-02T10:58:11;20.87;77.18
73829;SHT30;62176;48.450;-4.466;2022-09-02T11:00:39;20.99;77.67
73829;SHT30;62176;48.450;-4.466;2022-09-02T11:03:23;21.14;80.00
73829;SHT30;62176;48.450;-4.466;2022-09-02T11:06:12;21.22;77.79
73829;SHT30;62176;48.450;-4.466;2022-09-02T11:08:44;21.34;76.76
73829;SHT30;62176;48.450;-4.466;2022-09-02T11:11:19;21.39;76.85
73829;SHT30;62176;48.450;-4.466;2022-09-02T11:16:38;21.58;76.44
73829;SHT30;62176;48.450;-4.466;2022-09-02T11:19:13;21.62;73.93
73829;SHT30;62176;48.450;-4.466;2022-09-02T11:24:41;21.63;76.46
73829;SHT30;62176;48.450;-4.466;2022-09-02T11:27:14;21.70;75.07
73829;SHT30;62176;48.450;-4.466;2022-09-02T11:30:02;21.75;74.33
73829;SHT30;62176;48.450;-4.466;2022-09-02T11:32:39;21.78;74.23
73829;SHT30;62176;48.450;-4.466;2022-09-02T11:35:17;21.80;74.78
73829;SHT30;62176;48.450;-4.466;2022-09-02T11:37:51;21.88;72.46
73829;SHT30;62176;48.450;-4.466;2022-09-02T11:52:06;22.32;71.82
73829;SHT30;62176;48.450;-4.466;2022-09-02T11:54:45;22.24;70.93
73829;SHT30;62176;48.450;-4.466;2022-09-02T11:57:15;22.18;71.29
73829;SHT30;62176;48.450;-4.466;2022-09-02T12:02:52;22.03;72.66
73829;SHT30;62176;48.450;-4.466;2022-09-02T12:08:03;21.65;73.68
73829;SHT30;62176;48.450;-4.466;2022-09-02T12:18:38;21.27;74.34
73829;SHT30;62176;48.450;-4.466;2022-09-02T12:21:09;21.24;73.95
73829;SHT30;62176;48.450;-4.466;2022-09-02T12:26:22;21.15;74.55
73829;SHT30;62176;48.450;-4.466;2022-09-02T12:28:50;21.17;74.62
73829;SHT30;62176;48.450;-4.466;2022-09-02T12:33:46;21.22;74.19
73829;SHT30;62176;48.450;-4.466;2022-09-02T12:50:28;21.50;74.23
73829;SHT30;62176;48.450;-4.466;2022-09-02T12:56:05;21.58;73.73
73829;SHT30;62176;48.450;-4.466;2022-09-02T12:58:45;21.53;73.72
73829;SHT30;62176;48.450;-4.466;2022-09-02T13:26:47;21.88;71.77
73829;SHT30;62176;48.450;-4.466;2022-09-02T13:32:21;22.02;70.95
73829;SHT30;62176;48.450;-4.466;2022-09-02T13:34:48;22.20;68.89
73829;SHT30;62176;48.450;-4.466;2022-09-02T13:37:33;22.36;71.56
73829;SHT30;62176;48.450;-4.466;2022-09-02T13:40:03;22.61;69.61
73829;SHT30;62176;48.450;-4.466;2022-09-02T13:42:29;22.87;69.24
73829;SHT30;62176;48.450;-4.466;2022-09-02T13:45:25;23.20;68.56
73829;SHT30;62176;48.450;-4.466;2022-09-02T13:47:57;23.50;69.27
73829;SHT30;62176;48.450;-4.466;2022-09-02T13:50:26;23.76;67.33
73829;SHT30;62176;48.450;-4.466;2022-09-02T13:52:57;23.99;65.65
73829;SHT30;62176;48.450;-4.466;2022-09-02T13:55:24;24.10;66.62
73829;SHT30;62176;48.450;-4.466;2022-09-02T13:57:56;24.13;66.08
73829;SHT30;62176;48.450;-4.466;2022-09-02T14:00:38;24.38;63.63
73829;SHT30;62176;48.450;-4.466;2022-09-02T14:03:05;24.51;63.86
73829;SHT30;62176;48.450;-4.466;2022-09-02T14:05:33;24.69;62.83
73829;SHT30;62176;48.450;-4.466;2022-09-02T14:08:02;24.82;62.66
73829;SHT30;62176;48.450;-4.466;2022-09-02T14:10:30;25.05;63.40
73829;SHT30;62176;48.450;-4.466;2022-09-02T14:13:00;25.05;62.16
73829;SHT30;62176;48.450;-4.466;2022-09-02T14:15:31;25.12;61.69
73829;SHT30;62176;48.450;-4.466;2022-09-02T14:20:38;25.22;59.13
73829;SHT30;62176;48.450;-4.466;2022-09-02T14:23:05;25.28;61.32
73829;SHT30;62176;48.450;-4.466;2022-09-02T14:25:35;25.28;59.97
73829;SHT30;62176;48.450;-4.466;2022-09-02T14:28:07;25.20;59.89
73829;SHT30;62176;48.450;-4.466;2022-09-02T14:30:39;25.12;61.79
73829;SHT30;62176;48.450;-4.466;2022-09-02T14:36:08;25.09;60.28
73829;SHT30;62176;48.450;-4.466;2022-09-02T14:41:29;25.14;60.76
73829;SHT30;62176;48.450;-4.466;2022-09-02T14:43:59;25.18;60.89
73829;SHT30;62176;48.450;-4.466;2022-09-02T14:46:43;25.07;59.45
73829;SHT30;62176;48.450;-4.466;2022-09-02T14:49:18;25.08;61.63
73829;SHT30;62176;48.450;-4.466;2022-09-02T14:51:44;25.04;60.19
73829;SHT30;62176;48.450;-4.466;2022-09-02T14:54:11;25.01;59.96
73829;SHT30;62176;48.450;-4.466;2022-09-02T14:56:51;24.96;59.33
73829;SHT30;62176;48.450;-4.466;2022-09-02T14:59:17;24.91;61.70
73829;SHT30;62176;48.450;-4.466;2022-09-02T15:01:46;24.92;60.60
73829;SHT30;62176;48.450;-4.466;2022-09-02T15:04:13;25.02;61.09
73829;SHT30;62176;48.450;-4.466;2022-09-02T15:06:40;24.96;60.06
73829;SHT30;62176;48.450;-4.466;2022-09-02T15:09:05;24.96;61.07
73829;SHT30;62176;48.450;-4.466;2022-09-02T15:11:31;25.01;59.87
73829;SHT30;62176;48.450;-4.466;2022-09-02T15:13:56;25.08;60.27
73829;SHT30;62176;48.450;-4.466;2022-09-02T15:16:22;25.12;59.53
73829;SHT30;62176;48.450;-4.466;2022-09-02T15:18:47;25.11;58.95
73829;SHT30;62176;48.450;-4.466;2022-09-02T15:21:13;25.11;59.24
73829;SHT30;62176;48.450;-4.466;2022-09-02T15:23:38;25.09;58.33
73829;SHT30;62176;48.450;-4.466;2022-09-02T15:26:05;25.07;59.42
73829;SHT30;62176;48.450;-4.466;2022-09-02T15:28:32;25.09;58.95
73829;SHT30;62176;48.450;-4.466;2022-09-02T15:30:59;25.15;59.63
73829;SHT30;62176;48.450;-4.466;2022-09-02T15:33:25;25.09;56.59
73829;SHT30;62176;48.450;-4.466;2022-09-02T15:35:51;24.98;58.43
73829;SHT30;62176;48.450;-4.466;2022-09-02T15:38:17;24.79;58.90
73829;SHT30;62176;48.450;-4.466;2022-09-02T15:40:43;24.82;58.38
73829;SHT30;62176;48.450;-4.466;2022-09-02T15:43:10;24.78;59.50
73829;SHT30;62176;48.450;-4.466;2022-09-02T15:45:45;24.82;60.42
73829;SHT30;62176;48.450;-4.466;2022-09-02T15:48:14;24.89;60.18
73829;SHT30;62176;48.450;-4.466;2022-09-02T15:50:39;24.91;59.57
73829;SHT30;62176;48.450;-4.466;2022-09-02T15:53:05;24.92;59.11
73829;SHT30;62176;48.450;-4.466;2022-09-02T15:55:31;24.81;59.77
73829;SHT30;62176;48.450;-4.466;2022-09-02T15:57:57;24.55;60.61
73829;SHT30;62176;48.450;-4.466;2022-09-02T16:00:23;24.40;61.19
73829;SHT30;62176;48.450;-4.466;2022-09-02T16:02:50;24.23;62.03
73829;SHT30;62176;48.450;-4.466;2022-09-02T16:05:16;24.07;62.12
73829;SHT30;62176;48.450;-4.466;2022-09-02T16:07:41;23.96;62.99
73829;SHT30;62176;48.450;-4.466;2022-09-02T16:10:07;23.93;62.52
73829;SHT30;62176;48.450;-4.466;2022-09-02T16:12:33;23.89;62.88
73829;SHT30;62176;48.450;-4.466;2022-09-02T16:14:58;23.96;62.28
73829;SHT30;62176;48.450;-4.466;2022-09-02T16:17:24;23.99;63.11
73829;SHT30;62176;48.450;-4.466;2022-09-02T16:19:49;23.93;63.47
73829;SHT30;62176;48.450;-4.466;2022-09-02T16:22:14;23.72;64.09
73829;SHT30;62176;48.450;-4.466;2022-09-02T16:24:40;23.46;64.11
73829;SHT30;62176;48.450;-4.466;2022-09-02T16:27:05;23.19;64.19
73829;SHT30;62176;48.450;-4.466;2022-09-02T16:29:31;22.97;65.01
73829;SHT30;62176;48.450;-4.466;2022-09-02T16:31:57;22.71;65.79
73829;SHT30;62176;48.450;-4.466;2022-09-02T16:34:23;22.63;66.38
73829;SHT30;62176;48.450;-4.466;2022-09-02T16:36:49;22.44;67.35
73829;SHT30;62176;48.450;-4.466;2022-09-02T16:39:17;22.32;67.10
73829;SHT30;62176;48.450;-4.466;2022-09-02T16:41:51;22.21;67.78
73829;SHT30;62176;48.450;-4.466;2022-09-02T16:44:24;22.09;68.08
73829;SHT30;62176;48.450;-4.466;2022-09-02T16:46:51;22.03;68.50
73829;SHT30;62176;48.450;-4.466;2022-09-02T16:49:19;21.99;69.40
73829;SHT30;62176;48.450;-4.466;2022-09-02T16:51:47;22.03;69.39
73829;SHT30;62176;48.450;-4.466;2022-09-02T16:54:13;21.96;69.52
73829;SHT30;62176;48.450;-4.466;2022-09-02T16:56:39;21.96;69.91
73829;SHT30;62176;48.450;-4.466;2022-09-02T16:59:07;21.93;69.91
73829;SHT30;62176;48.450;-4.466;2022-09-02T17:01:33;21.94;69.75
73829;SHT30;62176;48.450;-4.466;2022-09-02T17:03:59;21.90;69.92
73829;SHT30;62176;48.450;-4.466;2022-09-02T17:06:26;21.88;70.41
73829;SHT30;62176;48.450;-4.466;2022-09-02T17:08:52;21.80;70.97
73829;SHT30;62176;48.450;-4.466;2022-09-02T17:13:54;21.75;70.62
73829;SHT30;62176;48.450;-4.466;2022-09-02T17:16:21;21.78;70.64
73829;SHT30;62176;48.450;-4.466;2022-09-02T17:18:48;21.83;71.16
73829;SHT30;62176;48.450;-4.466;2022-09-02T17:21:18;21.79;70.72
73829;SHT30;62176;48.450;-4.466;2022-09-02T17:23:45;21.85;70.37
73829;SHT30;62176;48.450;-4.466;2022-09-02T17:26:10;21.82;70.26
73829;SHT30;62176;48.450;-4.466;2022-09-02T17:28:36;21.69;70.33
73829;SHT30;62176;48.450;-4.466;2022-09-02T17:31:38;21.63;71.40
73829;SHT30;62176;48.450;-4.466;2022-09-02T17:34:07;21.50;71.67
73829;SHT30;62176;48.450;-4.466;2022-09-02T17:36:35;21.42;71.71
73829;SHT30;62176;48.450;-4.466;2022-09-02T17:39:07;21.27;71.76
73829;SHT30;62176;48.450;-4.466;2022-09-02T17:41:33;21.19;71.93
73829;SHT30;62176;48.450;-4.466;2022-09-02T17:44:17;21.21;72.12
73829;SHT30;62176;48.450;-4.466;2022-09-02T17:46:44;21.09;72.93